aviador You're here:

CYBQ Decoded Metar

in
Report Time2018-01-17 18:08:00
UTC Time2018-01-17 18:17:27
Flight Rules mvfr MVFR
Wind090° at 07 kt
W.Decomp.*RWY 07: 6.6 kt HW 2.4 kt RCW
W.Rank090° ranks 14
Current wind is below 090° avg. (7.1)
Visibility9656 m
Phenomena:Light Snow
Clouds:Overcast 011 Hf
Expected CloudBase > 400 ft AGL from Temp-Dew spread
Ceiling1,100 ft
Temp-15°C
Dew Point-16°C (92% RH)
AAT-20.9°C
QNH1010 hPa
Raw Report
SPECI CYBQ 171808Z AUTO 09007KT 6SM -SN OVC011 M15/M16 A2984 RMK
SLP134=

Extra information for CYBQ:More info

Social comments